METAR

METAR LDZA 241000Z 29004KT 240V350 CAVOK 19/05 Q1023 NOSIG=
METAR LDSP 241000Z 23008KT CAVOK 18/11 Q1023 NOSIG=
METAR LDDU 241000Z 29007KT 250V330 9999 VCFG NSC 16/11 Q1023 NOSIG =
METAR LDZD 241000Z VRB04KT CAVOK 18/12 Q1023 BECMG 28008KT =
METAR LDPL 241000Z 16005KT 080V210 CAVOK 19/08 Q1023 NOSIG=
METAR LDOS 241000Z 30010KT CAVOK 20/08 Q1022=
METAR LDRI 241000Z VRB03KT CAVOK 18/09 Q1023=

TAF

TAF LDZA 240525Z 2406/2506 23005KT CAVOK
                 TX23/2414Z TN04/2505Z
           BECMG 2411/2413 05010KT
           BECMG 2418/2420 05006KT=
TAF LDSP 240525Z 2406/2506 VRB02KT CAVOK
                 TX21/2413Z TN11/2406Z
           BECMG 2410/2412 23008KT
           TEMPO 2412/2415 23011KT
           BECMG 2415/2417 31005KT=
TAF COR LDDU 240950Z 2409/2506 30008KT CAVOK
                     TX19/2412Z TN11/2505Z
               BECMG 2417/2419 08006KT=
TAF LDZD 240525Z 2406/2506 11003KT 4000 BCFG NSC
                 TX22/2412Z TN08/2406Z
           BECMG 2406/2408 CAVOK
    PROB30 TEMPO 2406/2407 0800 FG
           BECMG 2410/2412 28008KT
           BECMG 2417/2419 09005KT
           TEMPO 2423/2506 06008KT=
TAF LDPL 240525Z 2406/2506 06005KT CAVOK
                 TX20/2413Z TN08/2504Z
           BECMG 2411/2413 27008KT
           BECMG 2417/2419 VRB02KT
           BECMG 2501/2503 05012KT=
TAF LDOS 240525Z 2406/2506 26009KT CAVOK
                 TX25/2413Z TN06/2505Z=
TAF LDRI 240525Z 2406/2506 VRB02KT CAVOK
                 TX18/2413Z TN10/2504Z
           BECMG 2410/2412 32008KT
           BECMG 2417/2419 VRB02KT=

SIGMET

AIRMET

Ukoliko se brzina i smjer vjetra ne mogu odrediti zbog privremenog kvara sustava/indikatora,
informacija o vjetru u METAR izvješću bit će prikazana kao "/////KT".

 

         

      Politika MET podataka      

 

Disclaimer

 

In case of temporary system/sensor failure, wind speed and direction data will be represented as "/////KT" in METAR report.